createdAt,value
2022-10-21T00:01:32.100Z,100.00
2022-10-21T00:03:58.537Z,100.00
2022-10-21T00:06:25.009Z,100.00
2022-10-21T00:08:51.517Z,100.00
2022-10-21T00:11:17.996Z,100.00
2022-10-21T00:13:44.403Z,100.00
2022-10-21T00:16:14.309Z,100.00
2022-10-21T00:18:43.184Z,100.00
2022-10-21T00:21:12.654Z,100.00
2022-10-21T00:23:39.960Z,100.00
2022-10-21T00:26:07.141Z,100.00
2022-10-21T00:28:33.561Z,100.00
2022-10-21T00:31:00.239Z,100.00
2022-10-21T00:33:27.793Z,100.00
2022-10-21T00:35:57.171Z,100.00
2022-10-21T00:38:23.683Z,100.00
2022-10-21T00:40:50.271Z,100.00
2022-10-21T00:43:17.916Z,100.00
2022-10-21T00:45:45.255Z,100.00
2022-10-21T00:48:25.203Z,99.99
2022-10-21T00:50:54.915Z,99.99
2022-10-21T00:53:22.399Z,100.00
2022-10-21T00:55:59.951Z,100.00
2022-10-21T00:58:30.186Z,100.00
2022-10-21T01:00:59.406Z,100.00
2022-10-21T01:03:28.202Z,100.00
2022-10-21T01:05:57.512Z,100.00
2022-10-21T01:08:26.255Z,100.00
2022-10-21T01:10:53.595Z,99.99
2022-10-21T01:13:57.677Z,100.00
2022-10-21T01:16:48.425Z,99.94
2022-10-21T01:19:21.140Z,99.96
2022-10-21T01:21:59.594Z,99.99
2022-10-21T01:24:59.062Z,100.00
2022-10-21T01:27:40.683Z,100.00
2022-10-21T01:30:29.728Z,100.00
2022-10-21T01:33:06.481Z,100.00
2022-10-21T01:35:55.286Z,100.00
2022-10-21T01:38:42.090Z,100.00
2022-10-21T01:41:29.896Z,100.00
2022-10-21T01:44:23.092Z,100.00
2022-10-21T01:47:01.680Z,99.57
2022-10-21T01:49:44.164Z,99.35
2022-10-21T01:52:12.457Z,98.90
2022-10-21T01:54:43.638Z,98.68
2022-10-21T01:57:14.241Z,98.26
2022-10-21T01:59:43.787Z,97.94
2022-10-21T02:02:11.669Z,97.53
2022-10-21T02:04:42.092Z,97.75
2022-10-21T02:07:09.536Z,97.35
2022-10-21T02:09:36.061Z,97.35
2022-10-21T02:12:05.561Z,97.49
2022-10-21T02:14:41.312Z,97.29
2022-10-21T02:17:11.271Z,97.48
2022-10-21T02:19:37.745Z,97.09
2022-10-21T02:22:06.304Z,97.14
2022-10-21T02:24:56.212Z,97.01
2022-10-21T02:27:24.139Z,96.99
2022-10-21T02:29:58.726Z,97.10
2022-10-21T02:32:55.627Z,96.95
2022-10-21T02:35:40.936Z,96.40
2022-10-21T02:38:26.003Z,96.30
2022-10-21T02:40:58.283Z,96.00
2022-10-21T02:43:33.540Z,95.81
2022-10-21T02:46:02.080Z,95.84
2022-10-21T02:48:28.621Z,95.97
2022-10-21T02:50:55.023Z,95.98
2022-10-21T02:53:21.423Z,95.69
2022-10-21T02:55:47.897Z,95.86
2022-10-21T02:58:14.274Z,95.94
2022-10-21T03:00:43.871Z,95.91
2022-10-21T03:03:10.687Z,96.18
2022-10-21T03:05:37.145Z,96.32
2022-10-21T03:08:03.731Z,96.18
2022-10-21T03:10:30.354Z,96.05
2022-10-21T03:12:56.786Z,95.92
2022-10-21T03:15:23.255Z,96.07
2022-10-21T03:17:49.756Z,96.14
2022-10-21T03:20:16.504Z,96.01
2022-10-21T03:22:44.077Z,95.93
2022-10-21T03:25:11.079Z,95.79
2022-10-21T03:27:37.618Z,95.53
2022-10-21T03:30:05.398Z,95.42
2022-10-21T03:32:32.069Z,95.37
2022-10-21T03:34:58.461Z,95.25
2022-10-21T03:37:24.947Z,95.27
2022-10-21T03:39:51.384Z,95.38
2022-10-21T03:42:17.997Z,95.29
2022-10-21T03:44:44.403Z,95.02
2022-10-21T03:47:10.888Z,95.03
2022-10-21T03:49:37.436Z,95.14
2022-10-21T03:52:03.995Z,95.17
2022-10-21T03:54:30.551Z,95.31
2022-10-21T03:56:57.001Z,95.61
2022-10-21T03:59:23.468Z,95.56
2022-10-21T04:01:52.880Z,95.51
2022-10-21T04:04:19.517Z,95.77
2022-10-21T04:06:46.048Z,95.60
2022-10-21T04:09:12.610Z,95.06
2022-10-21T04:11:39.169Z,95.03
2022-10-21T04:14:05.614Z,95.32
2022-10-21T04:16:33.771Z,95.36
2022-10-21T04:19:01.035Z,95.61
2022-10-21T04:21:27.431Z,95.71
2022-10-21T04:23:53.882Z,95.68
2022-10-21T04:26:20.321Z,95.81
2022-10-21T04:28:46.823Z,95.80
2022-10-21T04:31:13.224Z,95.92
2022-10-21T04:33:39.688Z,96.30
2022-10-21T04:36:06.439Z,96.00
2022-10-21T04:38:32.850Z,95.80
2022-10-21T04:41:01.964Z,95.72
2022-10-21T04:43:29.232Z,96.08
2022-10-21T04:45:55.996Z,96.50
2022-10-21T04:48:23.003Z,96.84
2022-10-21T04:50:51.206Z,96.85
2022-10-21T04:53:17.627Z,96.74
2022-10-21T04:55:47.840Z,97.04
2022-10-21T04:58:16.192Z,97.39
2022-10-21T05:00:44.737Z,97.63
2022-10-21T05:03:11.969Z,97.66
2022-10-21T05:05:38.689Z,97.65
2022-10-21T05:08:10.653Z,97.85
2022-10-21T05:10:38.161Z,97.89
2022-10-21T05:13:05.989Z,97.73
2022-10-21T05:15:33.691Z,97.37
2022-10-21T05:18:00.473Z,97.28
2022-10-21T05:20:27.007Z,97.28
2022-10-21T05:22:53.572Z,97.59
2022-10-21T05:25:20.351Z,97.59
2022-10-21T05:27:47.166Z,97.49
2022-10-21T05:30:14.399Z,97.65
2022-10-21T05:32:43.356Z,97.97
2022-10-21T05:35:11.955Z,97.99
2022-10-21T05:37:39.494Z,97.85
2022-10-21T05:40:07.004Z,97.74
2022-10-21T05:42:33.901Z,97.53
2022-10-21T05:45:00.322Z,97.81
2022-10-21T05:47:26.675Z,98.55
2022-10-21T05:49:53.128Z,98.70
2022-10-21T05:52:19.558Z,98.66
2022-10-21T05:54:45.996Z,98.78
2022-10-21T05:57:15.064Z,98.79
2022-10-21T05:59:41.422Z,98.16
2022-10-21T06:02:09.875Z,97.73
2022-10-21T06:04:38.639Z,97.85
2022-10-21T06:07:05.540Z,97.85
2022-10-21T06:09:31.919Z,98.06
2022-10-21T06:11:58.318Z,98.33
2022-10-21T06:14:25.965Z,98.31
2022-10-21T06:16:53.919Z,98.28
2022-10-21T06:19:20.311Z,98.50
2022-10-21T06:21:48.099Z,98.49
2022-10-21T06:24:15.206Z,98.55
2022-10-21T06:26:42.035Z,98.81
2022-10-21T06:31:44.370Z,99.66
2022-10-21T06:34:10.852Z,99.97
2022-10-21T06:36:39.932Z,100.00
2022-10-21T06:39:08.116Z,100.00
2022-10-21T06:41:34.872Z,100.00
2022-10-21T06:44:01.263Z,100.00
2022-10-21T06:46:27.625Z,100.00
2022-10-21T06:48:53.996Z,100.00
2022-10-21T06:51:22.661Z,99.99
2022-10-21T06:53:54.700Z,99.99
2022-10-21T06:56:22.353Z,99.87
2022-10-21T06:58:49.815Z,99.57
2022-10-21T07:01:34.735Z,99.65
2022-10-21T07:04:09.220Z,99.43
2022-10-21T07:06:35.958Z,99.37
2022-10-21T07:09:04.224Z,99.47
2022-10-21T07:11:30.663Z,99.84
2022-10-21T07:13:57.083Z,99.97
2022-10-21T07:16:26.348Z,100.00
2022-10-21T07:18:53.821Z,100.00
2022-10-21T07:21:22.252Z,99.99
2022-10-21T07:23:51.560Z,99.87
2022-10-21T07:26:19.942Z,99.74
2022-10-21T07:28:48.162Z,99.43
2022-10-21T07:31:17.176Z,98.98
2022-10-21T07:33:46.610Z,99.04
2022-10-21T07:36:20.203Z,98.96
2022-10-21T07:38:48.081Z,98.63
2022-10-21T07:41:19.374Z,98.55
2022-10-21T07:43:45.974Z,98.49
2022-10-21T07:46:15.354Z,98.24
2022-10-21T07:48:41.944Z,98.19
2022-10-21T07:51:12.786Z,98.13
2022-10-21T07:53:40.053Z,97.83
2022-10-21T07:56:15.121Z,97.11
2022-10-21T07:58:42.471Z,96.39
2022-10-21T08:01:10.509Z,96.03
2022-10-21T08:03:38.062Z,95.91
2022-10-21T08:06:05.915Z,95.67
2022-10-21T08:08:33.243Z,95.34
2022-10-21T08:10:59.720Z,95.28
2022-10-21T08:13:26.729Z,95.14
2022-10-21T08:15:56.778Z,94.79
2022-10-21T08:18:26.096Z,94.35
2022-10-21T08:20:52.690Z,93.75
2022-10-21T08:23:21.193Z,93.28
2022-10-21T08:25:55.101Z,92.78
2022-10-21T08:28:23.292Z,92.83
2022-10-21T08:30:49.948Z,92.40
2022-10-21T08:33:17.371Z,92.07
2022-10-21T08:35:44.087Z,91.47
2022-10-21T08:38:11.450Z,91.14
2022-10-21T08:40:41.436Z,91.30
2022-10-21T08:43:29.583Z,91.05
2022-10-21T08:46:03.047Z,90.19
2022-10-21T08:48:47.930Z,89.30
2022-10-21T08:51:30.238Z,88.67
2022-10-21T08:54:12.310Z,88.46
2022-10-21T08:56:39.937Z,87.85
2022-10-21T08:59:19.067Z,88.48
2022-10-21T09:02:14.376Z,87.07
2022-10-21T09:05:04.356Z,86.20
2022-10-21T09:07:57.237Z,84.79
2022-10-21T09:10:42.437Z,84.35
2022-10-21T09:13:23.182Z,84.89
2022-10-21T09:16:22.135Z,83.58
2022-10-21T09:18:57.411Z,83.31
2022-10-21T09:22:16.458Z,82.85
2022-10-21T09:24:53.321Z,83.02
2022-10-21T09:27:27.045Z,83.22
2022-10-21T09:30:07.281Z,83.03
2022-10-21T09:32:39.302Z,81.32
2022-10-21T09:35:16.205Z,81.81
2022-10-21T09:37:51.678Z,81.83
2022-10-21T09:40:20.834Z,81.57
2022-10-21T09:42:51.594Z,81.71
2022-10-21T09:45:24.755Z,81.75
2022-10-21T09:47:58.577Z,81.32
2022-10-21T09:50:25.921Z,81.17
2022-10-21T09:53:00.901Z,81.23
2022-10-21T09:55:28.888Z,80.39
2022-10-21T09:57:59.090Z,80.03
2022-10-21T10:00:44.593Z,79.19
2022-10-21T10:03:12.067Z,78.57
2022-10-21T10:05:48.031Z,79.13
2022-10-21T10:08:33.171Z,78.55
2022-10-21T10:11:03.805Z,78.98
2022-10-21T10:13:31.978Z,78.47
2022-10-21T10:16:22.986Z,78.93
2022-10-21T10:19:09.939Z,78.59
2022-10-21T10:21:36.367Z,78.70
2022-10-21T10:24:03.180Z,78.86
2022-10-21T10:26:38.068Z,78.52
2022-10-21T10:29:23.676Z,78.45
2022-10-21T10:31:55.475Z,79.07
2022-10-21T10:34:37.447Z,79.29
2022-10-21T10:37:20.435Z,79.68
2022-10-21T10:39:50.830Z,80.06
2022-10-21T10:42:24.203Z,80.22
2022-10-21T10:45:02.327Z,80.55
2022-10-21T10:47:41.935Z,81.00
2022-10-21T10:50:41.539Z,80.81
2022-10-21T10:53:21.287Z,81.05
2022-10-21T10:55:55.391Z,80.77
2022-10-21T10:58:28.022Z,80.77
2022-10-21T11:00:59.650Z,80.95
2022-10-21T11:04:02.476Z,81.52
2022-10-21T11:06:35.226Z,81.78
2022-10-21T11:09:02.786Z,82.01
2022-10-21T11:11:43.483Z,82.23
2022-10-21T11:14:20.216Z,82.08
2022-10-21T11:17:00.507Z,82.23
2022-10-21T11:19:30.264Z,82.27
2022-10-21T11:22:24.726Z,82.11
2022-10-21T11:25:02.389Z,81.91
2022-10-21T11:27:46.909Z,81.96
2022-10-21T11:30:19.686Z,82.10
2022-10-21T11:32:48.633Z,82.19
2022-10-21T11:35:24.910Z,82.24
2022-10-21T11:38:06.541Z,82.14
2022-10-21T11:40:38.266Z,81.85
2022-10-21T11:43:33.967Z,81.66
2022-10-21T11:46:22.774Z,81.72
2022-10-21T11:49:24.830Z,81.12
2022-10-21T11:52:13.041Z,80.75
2022-10-21T11:55:08.269Z,80.27
2022-10-21T11:58:18.791Z,80.40
2022-10-21T12:01:19.385Z,80.63
2022-10-21T12:04:08.856Z,80.88
2022-10-21T12:07:10.308Z,81.12
2022-10-21T12:09:49.223Z,81.47
2022-10-21T12:12:25.160Z,81.61
2022-10-21T12:15:02.391Z,81.79
2022-10-21T12:17:32.961Z,81.91
2022-10-21T12:20:03.545Z,81.86
2022-10-21T12:22:33.263Z,81.87
2022-10-21T12:25:31.699Z,81.93
2022-10-21T12:28:22.299Z,82.17
2022-10-21T12:31:23.475Z,82.32
2022-10-21T12:33:50.542Z,82.43
2022-10-21T12:36:22.828Z,82.60
2022-10-21T12:38:54.603Z,82.64
2022-10-21T12:41:24.122Z,82.56
2022-10-21T12:44:03.006Z,82.69
2022-10-21T12:46:39.078Z,82.63
2022-10-21T12:49:18.981Z,82.68
2022-10-21T12:52:03.838Z,82.69
2022-10-21T12:55:01.041Z,82.79
2022-10-21T12:57:37.410Z,83.11
2022-10-21T13:03:04.823Z,83.74
2022-10-21T13:05:37.364Z,83.75
2022-10-21T13:08:19.061Z,84.07
2022-10-21T13:11:04.430Z,84.75
2022-10-21T13:13:39.341Z,85.23
2022-10-21T13:16:17.978Z,86.00
2022-10-21T13:18:50.484Z,86.75
2022-10-21T13:21:35.338Z,87.40
2022-10-21T13:24:23.570Z,88.25
2022-10-21T13:26:55.727Z,88.82
2022-10-21T13:29:25.117Z,89.36
2022-10-21T13:32:12.381Z,89.91
2022-10-21T13:35:01.745Z,90.41
2022-10-21T13:37:35.673Z,90.83
2022-10-21T13:40:16.721Z,91.41
2022-10-21T13:42:49.488Z,92.01
2022-10-21T13:45:36.741Z,92.86
2022-10-21T13:48:03.113Z,94.07
2022-10-21T13:50:33.597Z,94.74
2022-10-21T13:53:05.442Z,95.58
2022-10-21T13:55:31.829Z,96.46
2022-10-21T13:57:58.259Z,97.00
2022-10-21T14:00:32.298Z,97.41
2022-10-21T14:03:05.524Z,97.92
2022-10-21T14:05:38.587Z,97.95
2022-10-21T14:08:17.160Z,98.30
2022-10-21T14:10:46.664Z,98.60
2022-10-21T14:13:13.717Z,98.86
2022-10-21T14:15:43.647Z,98.91
2022-10-21T14:18:42.375Z,99.07
2022-10-21T14:21:17.915Z,99.16
2022-10-21T14:23:46.642Z,99.76
2022-10-21T14:26:13.436Z,99.96
2022-10-21T14:28:40.022Z,100.00
2022-10-21T14:31:11.612Z,100.00
2022-10-21T14:33:42.348Z,100.00
2022-10-21T14:36:15.721Z,100.00
2022-10-21T14:38:59.078Z,100.00
2022-10-21T14:41:30.286Z,100.00
2022-10-21T14:44:04.975Z,100.00
2022-10-21T14:46:39.425Z,100.00
2022-10-21T14:49:06.362Z,100.00
2022-10-21T14:51:38.038Z,100.00
2022-10-21T14:54:07.290Z,100.00
2022-10-21T14:56:42.741Z,100.00
2022-10-21T14:59:40.983Z,100.00
2022-10-21T15:02:28.396Z,100.00
2022-10-21T15:05:03.651Z,100.00
2022-10-21T15:07:33.226Z,100.00
2022-10-21T15:10:02.733Z,100.00
2022-10-21T15:12:53.377Z,100.00
2022-10-21T15:15:42.203Z,100.00
2022-10-21T15:18:18.010Z,100.00
2022-10-21T15:20:58.430Z,100.00
2022-10-21T15:23:31.282Z,100.00
2022-10-21T15:26:15.873Z,100.00
2022-10-21T15:28:43.297Z,100.00
2022-10-21T15:31:18.641Z,100.00
2022-10-21T15:33:45.165Z,100.00
2022-10-21T15:36:14.157Z,100.00
2022-10-21T15:38:46.722Z,99.88
2022-10-21T15:41:25.309Z,99.43
2022-10-21T15:44:03.265Z,99.52
2022-10-21T15:46:33.136Z,99.54
2022-10-21T15:49:11.991Z,99.65
2022-10-21T15:51:38.393Z,99.48
2022-10-21T15:54:04.732Z,99.44
2022-10-21T15:56:31.118Z,99.37
2022-10-21T15:58:57.508Z,99.49
2022-10-21T16:01:23.890Z,99.57
2022-10-21T16:03:50.364Z,99.60
2022-10-21T16:06:19.588Z,99.69
2022-10-21T16:08:46.973Z,99.78
2022-10-21T16:11:25.671Z,99.97
2022-10-21T16:14:01.693Z,100.00
2022-10-21T16:16:28.216Z,100.00
2022-10-21T16:18:54.894Z,100.00
2022-10-21T16:21:22.986Z,100.00
2022-10-21T16:23:50.129Z,100.00
2022-10-21T16:26:22.082Z,100.00
2022-10-21T16:28:49.781Z,100.00
2022-10-21T16:31:16.312Z,100.00
2022-10-21T16:33:42.880Z,100.00
2022-10-21T16:36:20.264Z,100.00
2022-10-21T16:38:47.417Z,100.00
2022-10-21T16:41:16.894Z,100.00
2022-10-21T16:43:43.930Z,100.00
2022-10-21T16:46:22.614Z,100.00
2022-10-21T16:48:51.843Z,100.00
2022-10-21T16:51:18.586Z,100.00
2022-10-21T16:53:44.940Z,100.00
2022-10-21T16:56:11.298Z,100.00
2022-10-21T16:58:37.770Z,100.00
2022-10-21T17:01:06.078Z,100.00
2022-10-21T17:03:33.996Z,100.00
2022-10-21T17:06:00.705Z,100.00
2022-10-21T17:08:27.080Z,100.00
2022-10-21T17:10:53.512Z,100.00
2022-10-21T17:13:19.907Z,100.00
2022-10-21T17:15:46.317Z,100.00
2022-10-21T17:18:15.473Z,100.00
2022-10-21T17:20:43.173Z,100.00
2022-10-21T17:23:11.767Z,100.00
2022-10-21T17:25:38.282Z,100.00
2022-10-21T17:28:04.931Z,100.00
2022-10-21T17:30:31.447Z,100.00
2022-10-21T17:32:57.905Z,100.00
2022-10-21T17:35:24.504Z,100.00
2022-10-21T17:37:52.368Z,100.00
2022-10-21T17:40:22.984Z,100.00
2022-10-21T17:42:49.645Z,100.00
2022-10-21T17:45:17.856Z,100.00
2022-10-21T17:47:45.041Z,100.00
2022-10-21T17:50:12.712Z,100.00
2022-10-21T17:52:41.376Z,100.00
2022-10-21T17:55:08.439Z,100.00
2022-10-21T17:57:35.407Z,100.00
2022-10-21T18:00:03.543Z,100.00
2022-10-21T18:02:33.366Z,100.00
2022-10-21T18:05:00.793Z,100.00
2022-10-21T18:07:28.554Z,100.00
2022-10-21T18:09:55.597Z,100.00
2022-10-21T18:12:23.178Z,100.00
2022-10-21T18:14:51.496Z,100.00
2022-10-21T18:17:19.177Z,100.00
2022-10-21T18:19:47.043Z,100.00
2022-10-21T18:22:14.027Z,100.00
2022-10-21T18:24:40.836Z,100.00
2022-10-21T18:27:08.054Z,100.00
2022-10-21T18:29:35.084Z,100.00
2022-10-21T18:32:01.878Z,100.00
2022-10-21T18:34:29.900Z,100.00
2022-10-21T18:36:59.392Z,100.00
2022-10-21T18:39:26.764Z,100.00
2022-10-21T18:41:53.721Z,100.00
2022-10-21T18:44:20.153Z,100.00
2022-10-21T18:46:49.230Z,100.00
2022-10-21T18:49:18.408Z,100.00
2022-10-21T18:51:45.447Z,100.00
2022-10-21T18:54:15.699Z,100.00
2022-10-21T18:56:42.139Z,100.00
2022-10-21T18:59:09.910Z,100.00
2022-10-21T19:01:36.999Z,100.00
2022-10-21T19:04:03.769Z,100.00
2022-10-21T19:06:40.529Z,100.00
2022-10-21T19:09:22.513Z,100.00
2022-10-21T19:11:49.027Z,100.00
2022-10-21T19:14:16.130Z,100.00
2022-10-21T19:16:44.065Z,100.00
2022-10-21T19:19:11.558Z,100.00
2022-10-21T19:21:38.027Z,100.00
2022-10-21T19:24:04.918Z,100.00
2022-10-21T19:26:34.077Z,100.00
2022-10-21T19:29:03.372Z,100.00
2022-10-21T19:31:32.387Z,100.00
2022-10-21T19:34:02.371Z,100.00
2022-10-21T19:36:28.798Z,100.00
2022-10-21T19:38:55.185Z,100.00
2022-10-21T19:41:23.118Z,100.00
2022-10-21T19:43:51.802Z,100.00
2022-10-21T19:46:24.832Z,100.00
2022-10-21T19:48:52.503Z,100.00
2022-10-21T19:51:22.089Z,100.00
2022-10-21T19:53:50.147Z,100.00
2022-10-21T19:56:20.893Z,100.00
2022-10-21T19:58:50.620Z,100.00
2022-10-21T20:01:26.388Z,100.00
2022-10-21T20:03:54.249Z,100.00
2022-10-21T20:06:22.392Z,100.00
2022-10-21T20:08:49.283Z,100.00
2022-10-21T20:11:19.079Z,100.00
2022-10-21T20:13:46.245Z,100.00
2022-10-21T20:16:38.916Z,100.00
2022-10-21T20:19:06.947Z,100.00
2022-10-21T20:21:35.316Z,100.00
2022-10-21T20:24:02.844Z,100.00
2022-10-21T20:26:29.762Z,100.00
2022-10-21T20:28:57.302Z,100.00
2022-10-21T20:31:24.430Z,100.00
2022-10-21T20:33:51.739Z,100.00
2022-10-21T20:36:27.357Z,100.00
2022-10-21T20:38:58.228Z,100.00
2022-10-21T20:41:28.192Z,100.00
2022-10-21T20:43:55.019Z,100.00
2022-10-21T20:46:23.682Z,100.00
2022-10-21T20:48:52.159Z,100.00
2022-10-21T20:51:24.291Z,100.00
2022-10-21T20:54:02.970Z,100.00
2022-10-21T20:56:35.131Z,100.00
2022-10-21T20:59:02.893Z,100.00
2022-10-21T21:01:32.602Z,100.00
2022-10-21T21:04:04.683Z,100.00
2022-10-21T21:06:35.246Z,100.00
2022-10-21T21:09:33.092Z,100.00
2022-10-21T21:11:48.324Z,100.00
2022-10-21T21:14:15.020Z,100.00
2022-10-21T21:16:41.463Z,100.00
2022-10-21T21:19:11.839Z,100.00
2022-10-21T21:21:38.687Z,100.00
2022-10-21T21:24:05.563Z,100.00
2022-10-21T21:26:35.667Z,100.00
2022-10-21T21:29:02.919Z,100.00
2022-10-21T21:31:31.082Z,100.00
2022-10-21T21:33:57.796Z,100.00
2022-10-21T21:36:25.361Z,100.00
2022-10-21T21:38:54.016Z,100.00
2022-10-21T21:41:22.497Z,100.00
2022-10-21T21:43:50.964Z,100.00
2022-10-21T21:46:23.864Z,100.00
2022-10-21T21:48:59.493Z,100.00
2022-10-21T21:51:33.842Z,100.00
2022-10-21T21:54:00.349Z,100.00
2022-10-21T21:56:28.013Z,100.00
2022-10-21T21:58:56.248Z,100.00
2022-10-21T22:01:25.267Z,100.00
2022-10-21T22:03:52.009Z,100.00
2022-10-21T22:06:21.625Z,100.00
2022-10-21T22:08:48.789Z,100.00
2022-10-21T22:11:18.845Z,100.00
2022-10-21T22:13:45.990Z,100.00
2022-10-21T22:16:15.291Z,100.00
2022-10-21T22:18:42.494Z,100.00
2022-10-21T22:21:12.987Z,100.00
2022-10-21T22:23:40.133Z,100.00
2022-10-21T22:26:07.711Z,100.00
2022-10-21T22:28:35.094Z,100.00
2022-10-21T22:31:05.426Z,100.00
2022-10-21T22:33:32.491Z,100.00
2022-10-21T22:35:59.240Z,100.00
2022-10-21T22:38:25.771Z,100.00
2022-10-21T22:40:53.853Z,100.00
2022-10-21T22:43:20.385Z,100.00
2022-10-21T22:45:48.137Z,100.00
2022-10-21T22:48:15.762Z,100.00
2022-10-21T22:50:42.335Z,100.00
2022-10-21T22:53:09.411Z,100.00
2022-10-21T22:55:36.389Z,100.00
2022-10-21T22:58:02.921Z,100.00
2022-10-21T23:00:29.447Z,100.00
2022-10-21T23:02:56.037Z,100.00
2022-10-21T23:05:23.059Z,100.00
2022-10-21T23:07:50.305Z,100.00
2022-10-21T23:10:16.899Z,100.00
2022-10-21T23:12:43.586Z,100.00
2022-10-21T23:15:10.808Z,100.00
2022-10-21T23:17:37.240Z,100.00
2022-10-21T23:20:04.599Z,100.00
2022-10-21T23:22:31.005Z,100.00
2022-10-21T23:24:57.512Z,100.00
2022-10-21T23:27:23.892Z,100.00
2022-10-21T23:29:50.374Z,100.00
2022-10-21T23:32:16.799Z,100.00
2022-10-21T23:34:43.602Z,100.00
2022-10-21T23:37:10.284Z,100.00
2022-10-21T23:39:36.813Z,100.00
2022-10-21T23:42:03.396Z,100.00
2022-10-21T23:44:29.859Z,100.00
2022-10-21T23:46:57.000Z,100.00
2022-10-21T23:49:24.190Z,100.00
2022-10-21T23:51:50.739Z,100.00
2022-10-21T23:54:17.177Z,100.00
2022-10-21T23:56:43.794Z,100.00
2022-10-21T23:59:10.268Z,100.00
